Time;durP1;ratioP1;P1;durP2;ratioP2;P2;SDS_P1;SDS_P2;PMS_P1;PMS_P2;Temp;Humidity;BMP_temperature;BMP_pressure;BME280_temperature;BME280_humidity;BME280_pressure;Samples;Min_cycle;Max_cycle;Signal;HPM_P1;HPM_P2
2021/09/12 00:01:57;;;;;;;12.25;7.18;;;;;;;15.24;52.84;100044.66;5069127;28;20035;-22
2021/09/12 00:04:23;;;;;;;11.65;7.13;;;;;;;15.21;52.86;100054.06;5069285;28;20031;-22
2021/09/12 00:06:48;;;;;;;10.68;6.72;;;;;;;15.17;52.80;100030.63;5069409;28;20028;-22
2021/09/12 00:09:14;;;;;;;12.20;6.43;;;;;;;14.88;52.93;100005.84;5069259;28;20024;-21
2021/09/12 00:11:40;;;;;;;13.63;6.70;;;;;;;14.82;53.16;100029.91;5069176;28;20036;-22
2021/09/12 00:14:05;;;;;;;11.27;6.63;;;;;;;14.88;52.80;100038.84;5069346;28;20404;-22
2021/09/12 00:16:31;;;;;;;9.68;6.25;;;;;;;14.81;53.26;100048.94;5069168;28;20043;-22
2021/09/12 00:18:56;;;;;;;10.52;6.38;;;;;;;15.03;51.95;100025.63;5069345;28;20093;-22
2021/09/12 00:21:22;;;;;;;8.70;6.00;;;;;;;15.20;50.93;100036.31;5069635;28;20024;-22
2021/09/12 00:23:47;;;;;;;13.30;6.03;;;;;;;15.31;49.44;100047.19;5068910;28;20039;-22
2021/09/12 00:26:13;;;;;;;8.65;5.82;;;;;;;15.46;48.99;100044.66;5069378;28;20043;-22
2021/09/12 00:28:38;;;;;;;10.60;5.85;;;;;;;15.78;48.50;100043.97;5069276;28;20408;-22
2021/09/12 00:31:04;;;;;;;13.55;5.53;;;;;;;15.56;48.60;100050.16;5069138;28;20102;-22
2021/09/12 00:33:31;;;;;;;9.27;5.68;;;;;;;15.14;49.55;100034.63;5068988;28;20039;-22
2021/09/12 00:35:57;;;;;;;9.38;5.68;;;;;;;14.97;50.10;100037.34;5068721;28;20032;-21
2021/09/12 00:38:23;;;;;;;9.07;5.90;;;;;;;14.94;50.34;100020.94;5068786;28;20488;-22
2021/09/12 00:40:48;;;;;;;9.88;5.30;;;;;;;15.33;49.70;100039.69;5068954;28;20044;-22
2021/09/12 00:43:14;;;;;;;9.13;5.72;;;;;;;15.63;49.35;100033.81;5068658;28;20028;-22
2021/09/12 00:45:39;;;;;;;10.48;5.57;;;;;;;15.37;50.98;100022.81;5068443;28;20071;-22
2021/09/12 00:48:05;;;;;;;10.43;5.93;;;;;;;15.48;50.81;100037.97;5068692;28;20032;-22
2021/09/12 00:50:31;;;;;;;12.48;5.68;;;;;;;15.22;51.79;100036.88;5034134;28;20036;-22
2021/09/12 00:53:00;;;;;;;9.63;5.85;;;;;;;15.13;51.19;100014.19;5068470;28;20127;-22
2021/09/12 00:55:25;;;;;;;12.52;6.00;;;;;;;15.42;51.14;100032.78;5034286;28;20208;-22
2021/09/12 00:57:51;;;;;;;20.67;9.65;;;;;;;15.78;49.29;100041.28;5049776;28;20489;-22
2021/09/12 01:00:16;;;;;;;12.35;6.70;;;;;;;15.40;51.70;100029.56;5033900;28;20029;-21
2021/09/12 01:02:42;;;;;;;10.95;6.30;;;;;;;14.48;54.02;100029.13;5068445;28;20466;-22
2021/09/12 01:05:08;;;;;;;11.10;6.10;;;;;;;14.88;53.15;100038.06;5068468;28;20056;-21
2021/09/12 01:07:34;;;;;;;12.95;6.60;;;;;;;15.23;52.38;100033.13;5050116;28;20071;-22
2021/09/12 01:09:59;;;;;;;14.52;7.25;;;;;;;15.29;51.85;100017.88;5068279;28;20029;-22
2021/09/12 01:12:25;;;;;;;12.95;6.40;;;;;;;15.51;51.26;100015.19;5050265;28;20036;-22
2021/09/12 01:14:52;;;;;;;10.05;6.10;;;;;;;15.89;49.36;100037.63;5068149;28;20129;-22
2021/09/12 01:17:18;;;;;;;12.27;6.13;;;;;;;15.90;49.21;100023.13;5050006;28;20123;-22
2021/09/12 01:19:43;;;;;;;11.70;5.93;;;;;;;16.02;49.29;100020.28;5050010;28;20047;-22
2021/09/12 01:22:09;;;;;;;9.43;5.55;;;;;;;15.96;49.36;100016.72;5067948;28;20040;-21
2021/09/12 01:24:36;;;;;;;9.82;5.85;;;;;;;16.10;49.20;100027.03;5068177;28;20089;-21
2021/09/12 01:27:02;;;;;;;10.27;5.60;;;;;;;16.10;48.53;100013.59;5067860;28;20032;-22
2021/09/12 01:29:27;;;;;;;8.60;5.75;;;;;;;16.18;48.50;100018.50;5067972;28;20403;-22
2021/09/12 01:31:53;;;;;;;11.27;6.00;;;;;;;16.21;48.75;100020.69;5067768;28;20047;-22
2021/09/12 01:34:18;;;;;;;16.50;6.03;;;;;;;15.98;49.15;100030.72;5067683;28;20105;-22
2021/09/12 01:36:44;;;;;;;11.95;6.35;;;;;;;16.15;49.50;100029.78;5067667;28;20116;-21
2021/09/12 01:39:09;;;;;;;11.90;6.72;;;;;;;15.65;50.31;100011.03;5049798;28;20029;-22
2021/09/12 01:41:35;;;;;;;9.60;5.55;;;;;;;15.64;50.58;100008.56;5067555;28;20032;-22
2021/09/12 01:44:01;;;;;;;12.23;6.68;;;;;;;15.83;50.63;100027.88;5067415;28;20029;-22
2021/09/12 01:46:27;;;;;;;9.68;6.47;;;;;;;15.37;52.25;100032.75;5067739;28;20024;-21
2021/09/12 01:48:53;;;;;;;11.65;6.70;;;;;;;15.38;52.15;100018.25;5049514;28;20024;-22
2021/09/12 01:51:19;;;;;;;10.82;6.90;;;;;;;15.33;52.07;100026.25;5067265;28;20091;-22
2021/09/12 01:53:45;;;;;;;11.20;7.35;;;;;;;15.37;52.41;100041.63;5067258;28;20070;-22
2021/09/12 01:56:11;;;;;;;12.73;7.20;;;;;;;15.27;53.06;100042.31;5067529;28;20148;-21
2021/09/12 01:58:36;;;;;;;11.40;6.22;;;;;;;14.88;54.46;100049.59;5067312;28;20036;-21
2021/09/12 02:01:02;;;;;;;10.27;6.47;;;;;;;14.87;54.50;100029.16;5067746;28;20025;-22
2021/09/12 02:03:27;;;;;;;12.05;6.97;;;;;;;15.10;53.69;100030.81;5067505;28;20028;-22
2021/09/12 02:05:53;;;;;;;13.05;7.00;;;;;;;15.53;52.53;100029.16;5067037;28;20396;-21
2021/09/12 02:08:19;;;;;;;11.32;6.68;;;;;;;15.47;53.12;100024.81;5067201;28;20032;-21
2021/09/12 02:10:44;;;;;;;10.05;6.70;;;;;;;15.42;52.56;100038.16;5066493;28;20025;-22
2021/09/12 02:13:10;;;;;;;12.55;7.07;;;;;;;15.37;52.50;100038.13;5067018;28;20036;-22
2021/09/12 02:15:36;;;;;;;9.90;6.72;;;;;;;15.54;52.07;100038.03;5049168;28;20116;-22
2021/09/12 02:18:01;;;;;;;12.02;6.85;;;;;;;15.51;51.52;100015.19;5067313;28;20099;-22
2021/09/12 02:20:27;;;;;;;10.45;7.10;;;;;;;15.16;52.97;100019.09;5067106;28;20040;-22
2021/09/12 02:22:52;;;;;;;12.73;7.38;;;;;;;14.81;54.04;100022.94;5067395;28;20031;-22
2021/09/12 02:25:18;;;;;;;14.27;7.25;;;;;;;14.47;55.30;100039.03;5067025;28;20037;-22
2021/09/12 02:27:43;;;;;;;10.95;7.65;;;;;;;14.75;54.29;100028.47;5066822;28;20553;-21
2021/09/12 02:30:09;;;;;;;10.95;7.18;;;;;;;15.02;53.73;100025.88;5067352;28;20036;-22
2021/09/12 02:32:35;;;;;;;12.40;6.90;;;;;;;14.78;54.02;100026.09;5067265;28;20028;-22
2021/09/12 02:35:00;;;;;;;12.80;7.20;;;;;;;14.54;54.95;100011.22;5066928;28;20028;-22
2021/09/12 02:37:26;;;;;;;12.55;7.60;;;;;;;14.75;54.35;100012.34;5067155;28;20025;-22
2021/09/12 02:39:51;;;;;;;14.80;7.85;;;;;;;14.69;55.20;100024.91;5066694;28;20343;-22
2021/09/12 02:42:17;;;;;;;9.80;7.40;;;;;;;14.31;55.96;100017.59;5066807;28;20082;-22
2021/09/12 02:44:42;;;;;;;13.07;7.05;;;;;;;14.45;55.82;100025.06;5066932;28;20118;-21
2021/09/12 02:47:08;;;;;;;11.48;7.90;;;;;;;14.21;56.25;100034.34;5066776;28;20502;-22
2021/09/12 02:49:33;;;;;;;14.27;8.45;;;;;;;14.00;57.10;100023.28;5067130;28;20039;-21
2021/09/12 02:51:58;;;;;;;12.95;7.45;;;;;;;13.73;58.19;100044.53;5066598;28;20024;-22
2021/09/12 02:54:24;;;;;;;11.23;7.20;;;;;;;13.85;57.97;100047.13;5066500;28;20055;-22
2021/09/12 02:56:49;;;;;;;12.68;7.38;;;;;;;13.97;57.70;100039.84;5066735;28;20029;-22
2021/09/12 02:59:15;;;;;;;11.50;8.10;;;;;;;13.93;58.22;100044.03;5066794;28;20029;-22
2021/09/12 03:01:40;;;;;;;12.20;8.32;;;;;;;13.94;58.07;100048.38;5066624;28;20509;-21
2021/09/12 03:04:06;;;;;;;15.20;8.52;;;;;;;13.97;57.45;100039.03;5066939;28;20048;-22
2021/09/12 03:06:31;;;;;;;12.20;8.15;;;;;;;13.94;57.83;100040.34;5066876;28;20024;-22
2021/09/12 03:08:57;;;;;;;12.35;8.38;;;;;;;14.00;57.28;100034.00;5048808;28;20040;-22
2021/09/12 03:11:22;;;;;;;14.50;9.07;;;;;;;14.18;56.53;100034.81;5066707;28;20028;-22
2021/09/12 03:13:48;;;;;;;15.15;8.27;;;;;;;13.73;57.72;100020.41;5066306;28;20083;-21
2021/09/12 03:16:13;;;;;;;11.98;7.80;;;;;;;13.91;56.98;100019.34;5066543;28;20032;-21
2021/09/12 03:18:39;;;;;;;12.32;7.75;;;;;;;13.76;57.86;100044.03;5066579;28;20032;-22
2021/09/12 03:21:04;;;;;;;14.00;7.80;;;;;;;14.00;56.48;100038.56;5068477;28;20035;-22
2021/09/12 03:23:30;;;;;;;20.40;8.45;;;;;;;14.17;56.47;100038.56;5070352;28;20487;-22
2021/09/12 03:25:55;;;;;;;16.55;7.90;;;;;;;14.02;56.86;100034.56;5070006;28;20032;-21
2021/09/12 03:28:21;;;;;;;11.73;7.45;;;;;;;13.87;57.47;100036.97;5069970;28;20102;-22
2021/09/12 03:30:46;;;;;;;13.07;7.53;;;;;;;13.84;56.38;100019.50;5070379;28;20856;-21
2021/09/12 03:33:14;;;;;;;13.52;8.18;;;;;;;14.24;55.89;100045.41;5070007;28;20036;-21
2021/09/12 03:35:40;;;;;;;14.80;8.13;;;;;;;14.42;55.26;100047.00;5070009;28;20032;-21
2021/09/12 03:38:06;;;;;;;15.13;8.98;;;;;;;14.47;54.98;100055.16;5070508;28;20056;-22
2021/09/12 03:40:31;;;;;;;16.25;9.20;;;;;;;14.68;54.67;100043.94;5070027;28;20479;-22
2021/09/12 03:42:57;;;;;;;15.23;8.88;;;;;;;14.53;54.95;100047.19;5069930;28;20416;-22
2021/09/12 03:45:22;;;;;;;16.73;9.32;;;;;;;14.14;57.07;100049.75;5070207;28;20029;-22
2021/09/12 03:47:48;;;;;;;16.00;9.32;;;;;;;14.21;56.49;100045.06;5069754;28;20025;-21
2021/09/12 03:50:13;;;;;;;34.45;9.35;;;;;;;14.44;56.28;100050.28;5070090;28;20041;-22
2021/09/12 03:52:40;;;;;;;12.07;7.55;;;;;;;14.34;57.04;100050.09;5069416;28;20053;-21
2021/09/12 03:55:07;;;;;;;14.43;7.93;;;;;;;14.12;57.21;100036.63;5069569;28;20029;-21
2021/09/12 03:57:32;;;;;;;9.70;7.10;;;;;;;14.06;58.01;100056.34;5069511;28;20032;-22
2021/09/12 03:59:58;;;;;;;9.77;7.28;;;;;;;14.25;57.85;100051.56;5069481;28;20800;-21
2021/09/12 04:02:23;;;;;;;16.23;8.13;;;;;;;14.45;57.42;100051.91;5069550;28;20028;-22
2021/09/12 04:04:49;;;;;;;13.05;7.82;;;;;;;14.58;57.00;100044.59;5069358;28;20036;-22
2021/09/12 04:07:14;;;;;;;13.05;7.63;;;;;;;14.50;57.21;100044.97;5069522;28;20484;-21
2021/09/12 04:09:40;;;;;;;12.95;7.63;;;;;;;14.25;57.97;100049.69;5069291;28;20032;-21
2021/09/12 04:12:05;;;;;;;12.27;7.82;;;;;;;14.30;57.65;100043.59;5069248;28;20024;-22
2021/09/12 04:14:31;;;;;;;13.18;6.78;;;;;;;14.54;56.93;100043.44;5069271;28;20466;-21
2021/09/12 04:16:56;;;;;;;14.25;7.32;;;;;;;14.56;57.10;100049.41;5069434;28;20035;-22
2021/09/12 04:19:22;;;;;;;14.38;7.40;;;;;;;14.29;57.54;100050.03;5069312;28;20036;-21
2021/09/12 04:21:47;;;;;;;10.75;7.20;;;;;;;14.40;57.45;100049.13;5069191;28;20450;-22
2021/09/12 04:24:13;;;;;;;15.38;7.88;;;;;;;14.51;56.87;100043.94;5069320;28;20035;-22
2021/09/12 04:26:38;;;;;;;13.55;8.00;;;;;;;14.17;57.87;100049.28;5069140;28;20039;-22
2021/09/12 04:29:04;;;;;;;22.65;11.00;;;;;;;14.33;57.96;100053.03;5069278;28;20032;-22
2021/09/12 04:31:29;;;;;;;22.20;10.75;;;;;;;14.90;56.05;100060.09;5068745;28;20040;-22
2021/09/12 04:33:55;;;;;;;16.35;7.97;;;;;;;14.57;56.76;100053.72;5068071;28;20511;-22
2021/09/12 04:36:20;;;;;;;13.07;6.82;;;;;;;14.62;56.61;100056.47;5069279;28;20029;-21
2021/09/12 04:38:46;;;;;;;10.13;6.55;;;;;;;14.59;56.75;100051.59;5068840;28;20481;-22
2021/09/12 04:41:11;;;;;;;11.27;7.10;;;;;;;14.26;57.16;100040.59;5068700;28;20043;-22
2021/09/12 04:43:37;;;;;;;12.10;6.65;;;;;;;14.31;57.48;100039.06;5068947;28;20029;-21
2021/09/12 04:46:02;;;;;;;11.85;6.70;;;;;;;14.58;57.16;100049.97;5068755;28;20403;-21
2021/09/12 04:48:28;;;;;;;11.35;6.85;;;;;;;14.50;57.68;100058.41;5068580;28;20098;-22
2021/09/12 04:50:54;;;;;;;12.63;6.80;;;;;;;14.59;57.54;100051.59;5050502;28;20036;-22
2021/09/12 04:53:20;;;;;;;13.70;6.88;;;;;;;14.86;56.46;100051.72;5068203;28;20516;-22
2021/09/12 04:55:45;;;;;;;9.25;6.55;;;;;;;14.94;56.35;100050.50;5068140;28;20032;-22
2021/09/12 04:58:11;;;;;;;10.98;6.85;;;;;;;14.75;56.85;100056.13;5068770;28;20815;-22
2021/09/12 05:00:36;;;;;;;9.13;6.60;;;;;;;14.76;57.21;100051.56;5068375;28;20032;-22
2021/09/12 05:03:02;;;;;;;11.32;6.85;;;;;;;14.81;57.00;100065.06;5068414;28;20044;-22
2021/09/12 05:05:27;;;;;;;13.25;7.13;;;;;;;14.70;57.53;100071.34;5068464;28;20040;-22
2021/09/12 05:07:54;;;;;;;11.32;6.57;;;;;;;14.74;57.34;100069.78;5067981;28;20040;-22
2021/09/12 05:10:21;;;;;;;11.55;6.60;;;;;;;14.59;57.90;100056.97;5068019;28;20032;-22
2021/09/12 05:12:46;;;;;;;12.73;6.55;;;;;;;14.69;57.27;100046.38;5068164;28;20073;-22
2021/09/12 05:15:12;;;;;;;15.43;7.68;;;;;;;14.60;57.70;100063.94;5068214;28;20032;-22
2021/09/12 05:17:37;;;;;;;11.73;6.95;;;;;;;14.73;57.70;100066.31;5067524;28;20031;-22
2021/09/12 05:20:04;;;;;;;9.93;6.90;;;;;;;14.76;57.24;100063.13;5068288;28;20533;-24
2021/09/12 05:22:29;;;;;;;12.15;6.40;;;;;;;14.95;56.87;100066.31;5068023;28;20040;-24
2021/09/12 05:24:55;;;;;;;12.93;6.97;;;;;;;14.98;57.00;100062.34;5067805;28;20024;-24
2021/09/12 05:27:20;;;;;;;11.82;6.60;;;;;;;15.08;56.80;100065.19;5067771;28;20032;-24
2021/09/12 05:29:46;;;;;;;10.98;6.30;;;;;;;15.47;56.13;100063.22;5067767;28;20082;-24
2021/09/12 05:32:11;;;;;;;13.52;6.80;;;;;;;15.37;55.50;100063.13;5067758;28;20098;-24
2021/09/12 05:34:37;;;;;;;11.18;6.40;;;;;;;15.56;55.21;100065.47;5067638;28;20040;-24
2021/09/12 05:37:02;;;;;;;10.32;6.60;;;;;;;15.72;55.50;100061.09;5068094;28;20029;-22
2021/09/12 05:39:28;;;;;;;8.02;5.78;;;;;;;15.71;55.37;100056.75;5067704;28;20145;-22
2021/09/12 05:41:53;;;;;;;9.18;5.75;;;;;;;15.89;54.21;100042.19;5067549;28;20032;-22
2021/09/12 05:44:19;;;;;;;9.38;5.93;;;;;;;16.04;53.07;100072.75;5067740;28;20904;-22
2021/09/12 05:46:45;;;;;;;9.65;5.45;;;;;;;16.12;53.20;100065.25;5067417;28;20039;-22
2021/09/12 05:49:11;;;;;;;8.98;6.18;;;;;;;16.37;52.08;100054.72;5067675;28;20035;-22
2021/09/12 05:51:36;;;;;;;10.13;5.57;;;;;;;16.38;52.10;100059.00;5067435;28;20391;-23
2021/09/12 05:54:01;;;;;;;10.43;5.78;;;;;;;16.65;51.40;100056.28;5032391;28;20423;-24
2021/09/12 05:56:27;;;;;;;9.52;5.45;;;;;;;16.85;50.47;100065.56;5067289;28;20028;-24
2021/09/12 05:58:52;;;;;;;10.18;6.20;;;;;;;16.97;50.49;100068.06;5067416;28;20024;-24
2021/09/12 06:01:19;;;;;;;12.05;6.35;;;;;;;17.01;50.53;100058.38;5067329;28;20055;-24
2021/09/12 06:03:45;;;;;;;11.95;5.82;;;;;;;17.10;51.17;100073.00;5067114;28;20064;-24
2021/09/12 06:06:10;;;;;;;11.95;5.78;;;;;;;17.08;51.06;100069.75;5067418;28;20059;-24
2021/09/12 06:08:36;;;;;;;9.45;5.97;;;;;;;17.07;50.83;100055.44;5067302;28;20044;-24
2021/09/12 06:11:01;;;;;;;11.35;6.13;;;;;;;17.02;51.70;100070.75;5067367;28;20039;-23
2021/09/12 06:13:27;;;;;;;11.75;5.97;;;;;;;17.16;50.85;100074.63;5067267;28;20032;-24
2021/09/12 06:15:52;;;;;;;10.00;5.93;;;;;;;17.23;50.33;100059.03;5067012;28;20897;-24
2021/09/12 06:18:18;;;;;;;11.77;6.28;;;;;;;17.38;50.90;100066.34;5067338;28;20043;-24
2021/09/12 06:20:43;;;;;;;8.32;4.97;;;;;;;17.13;50.29;100053.59;5032784;28;20064;-24
2021/09/12 06:23:09;;;;;;;8.95;5.32;;;;;;;17.38;49.73;100079.03;5067472;28;20864;-24
2021/09/12 06:25:34;;;;;;;9.65;4.60;;;;;;;17.74;49.34;100076.47;5049102;28;20024;-24
2021/09/12 06:28:00;;;;;;;9.80;5.38;;;;;;;17.79;48.94;100079.16;5048967;28;20024;-24
2021/09/12 06:30:25;;;;;;;10.50;4.65;;;;;;;18.27;46.70;100082.50;5067195;28;20484;-24
2021/09/12 06:32:51;;;;;;;8.85;4.65;;;;;;;18.38;46.66;100089.50;5066917;28;20138;-24
2021/09/12 06:35:16;;;;;;;9.20;4.65;;;;;;;18.45;44.48;100081.16;5066964;28;20036;-24
2021/09/12 06:37:42;;;;;;;7.05;4.35;;;;;;;18.49;43.60;100082.25;5066672;28;20028;-24
2021/09/12 06:40:08;;;;;;;49.90;29.58;;;;;;;18.65;44.16;100069.50;5066805;28;20024;-24
2021/09/12 06:42:33;;;;;;;7.78;4.75;;;;;;;18.44;43.86;100079.53;5067090;28;20032;-24
2021/09/12 06:44:59;;;;;;;9.23;4.43;;;;;;;18.57;44.09;100070.88;5066809;28;20497;-24
2021/09/12 06:47:24;;;;;;;7.35;4.72;;;;;;;18.84;44.02;100077.91;5066936;28;20039;-23
2021/09/12 06:49:50;;;;;;;7.88;4.63;;;;;;;18.96;42.93;100053.25;5048854;28;20035;-24
2021/09/12 06:52:15;;;;;;;11.73;6.38;;;;;;;19.14;42.98;100076.97;5066651;28;20113;-24
2021/09/12 06:54:41;;;;;;;8.77;4.57;;;;;;;19.47;42.27;100080.09;5066509;28;20475;-23
2021/09/12 06:57:06;;;;;;;9.75;4.68;;;;;;;19.44;41.91;100072.56;5052621;28;20021;-23
2021/09/12 06:59:32;;;;;;;10.40;4.63;;;;;;;19.70;42.03;100061.63;5070451;28;20055;-24
2021/09/12 07:01:57;;;;;;;8.73;4.00;;;;;;;20.05;40.98;100079.53;5070835;28;20032;-22
2021/09/12 07:04:23;;;;;;;7.57;4.40;;;;;;;20.36;40.02;100080.09;5070753;28;20051;-22
2021/09/12 07:06:48;;;;;;;7.43;4.15;;;;;;;20.31;39.60;100082.88;5070504;28;20028;-22
2021/09/12 07:09:13;;;;;;;8.07;3.83;;;;;;;20.35;38.79;100083.94;5070601;28;20047;-22
2021/09/12 07:11:39;;;;;;;6.80;4.03;;;;;;;20.64;39.83;100081.25;5070374;28;20024;-22
2021/09/12 07:14:05;;;;;;;10.82;3.90;;;;;;;20.91;39.81;100084.53;5070485;28;20049;-22
2021/09/12 07:16:30;;;;;;;7.38;4.45;;;;;;;20.92;38.44;100069.84;5070277;28;20024;-21
2021/09/12 07:18:56;;;;;;;8.73;3.92;;;;;;;21.01;38.68;100079.00;5070449;28;20420;-22
2021/09/12 07:21:21;;;;;;;9.50;3.95;;;;;;;21.06;38.64;100065.34;5070811;28;20036;-22
2021/09/12 07:23:47;;;;;;;6.40;3.78;;;;;;;21.03;38.34;100065.94;5070184;28;20129;-22
2021/09/12 07:26:12;;;;;;;7.15;3.92;;;;;;;21.66;39.75;100073.88;5070176;28;20020;-21
2021/09/12 07:28:38;;;;;;;8.60;4.13;;;;;;;21.42;37.47;100063.06;5070339;28;20423;-22
2021/09/12 07:31:04;;;;;;;6.20;3.70;;;;;;;21.35;37.39;100061.75;5070319;28;20036;-22
2021/09/12 07:33:29;;;;;;;7.82;3.97;;;;;;;21.39;37.88;100076.34;5070213;28;20549;-22
2021/09/12 07:35:55;;;;;;;8.13;3.92;;;;;;;21.77;37.22;100073.72;5069764;28;20032;-22
2021/09/12 07:38:20;;;;;;;6.55;3.72;;;;;;;22.05;36.77;100071.94;5069938;28;20767;-22
2021/09/12 07:40:46;;;;;;;8.43;3.95;;;;;;;21.76;36.54;100058.53;5069918;28;20033;-22
2021/09/12 07:43:11;;;;;;;10.45;4.30;;;;;;;22.32;35.06;100079.41;5070007;28;20089;-21
2021/09/12 07:45:37;;;;;;;9.82;4.32;;;;;;;21.84;35.62;100061.41;5069476;28;20044;-22
2021/09/12 07:48:02;;;;;;;10.00;4.88;;;;;;;22.17;35.29;100066.88;5069869;28;20028;-22
2021/09/12 07:50:28;;;;;;;8.73;3.70;;;;;;;22.37;35.77;100065.78;5069720;28;20021;-22
2021/09/12 07:52:53;;;;;;;10.15;4.35;;;;;;;22.53;35.90;100062.78;5069423;28;20057;-21
2021/09/12 07:55:19;;;;;;;8.30;3.50;;;;;;;22.71;34.91;100064.63;5070071;28;20116;-22
2021/09/12 07:57:44;;;;;;;7.00;3.63;;;;;;;22.71;34.27;100050.22;5069620;28;20210;-22
2021/09/12 08:00:12;;;;;;;7.22;3.65;;;;;;;22.72;34.34;100066.25;5069672;28;20825;-22
2021/09/12 08:02:38;;;;;;;6.95;3.72;;;;;;;22.74;33.94;100064.03;5069782;28;20035;-22
2021/09/12 08:05:04;;;;;;;6.45;4.00;;;;;;;22.98;34.56;100057.59;5069476;28;20060;-22
2021/09/12 08:07:29;;;;;;;13.50;7.28;;;;;;;23.13;36.16;100048.34;5068147;28;20056;-22
2021/09/12 08:09:55;;;;;;;9.38;3.70;;;;;;;23.24;34.37;100060.63;5069543;28;20035;-22
2021/09/12 08:12:20;;;;;;;8.48;3.75;;;;;;;23.45;33.66;100056.34;5069305;28;20032;-22
2021/09/12 08:14:46;;;;;;;5.68;3.70;;;;;;;23.38;33.26;100045.09;5069301;28;20094;-22
2021/09/12 08:17:12;;;;;;;7.60;3.65;;;;;;;23.60;33.37;100049.78;5069190;28;20036;-21
2021/09/12 08:19:37;;;;;;;6.28;3.88;;;;;;;23.90;33.71;100050.22;5069262;28;20037;-22
2021/09/12 08:22:03;;;;;;;8.02;4.07;;;;;;;23.86;32.76;100043.78;5068814;28;20036;-22
2021/09/12 08:24:28;;;;;;;8.50;4.00;;;;;;;24.11;32.63;100044.28;5069363;28;20037;-22
2021/09/12 08:26:54;;;;;;;8.55;4.00;;;;;;;24.24;31.82;100051.59;5069104;28;20051;-22
2021/09/12 08:29:19;;;;;;;10.30;4.32;;;;;;;24.50;32.95;100050.97;5068985;28;20450;-22
2021/09/12 08:31:45;;;;;;;8.10;4.13;;;;;;;24.73;31.72;100060.72;5069252;28;20040;-22
2021/09/12 08:34:10;;;;;;;10.88;4.70;;;;;;;24.79;32.15;100043.09;5069063;28;20044;-22
2021/09/12 08:36:36;;;;;;;5.95;4.05;;;;;;;25.01;30.37;100041.44;5068882;28;20082;-22
2021/09/12 08:39:01;;;;;;;9.85;4.85;;;;;;;24.97;29.91;100043.19;5068939;28;20040;-22
2021/09/12 08:41:27;;;;;;;15.38;5.38;;;;;;;24.86;30.89;100042.63;5068970;28;20037;-22
2021/09/12 08:43:52;;;;;;;7.45;4.50;;;;;;;25.03;30.47;100031.00;5050632;28;20043;-29
2021/09/12 08:46:18;;;;;;;9.13;4.30;;;;;;;25.03;31.34;100020.09;5068845;28;20017;-22
2021/09/12 08:48:44;;;;;;;8.18;3.72;;;;;;;25.06;29.80;100008.53;5068638;28;20028;-22
2021/09/12 08:51:09;;;;;;;8.90;4.30;;;;;;;25.25;30.26;100025.47;5050578;28;20115;-22
2021/09/12 08:53:35;;;;;;;7.50;4.00;;;;;;;25.17;29.98;99981.72;5068428;28;20057;-22
2021/09/12 08:56:00;;;;;;;10.77;4.13;;;;;;;25.41;30.25;99995.75;5068470;28;20117;-21
2021/09/12 08:58:27;;;;;;;6.93;3.85;;;;;;;25.78;29.08;100022.75;5068762;28;20480;-22
2021/09/12 09:00:56;;;;;;;11.48;4.40;;;;;;;25.95;29.31;100006.41;5068439;28;20032;-21
2021/09/12 09:03:22;;;;;;;8.40;4.00;;;;;;;26.15;28.69;100001.38;5051081;28;20423;-21
2021/09/12 09:05:50;;;;;;;8.15;4.47;;;;;;;26.14;28.53;100007.97;5033731;28;20525;-22
2021/09/12 09:08:18;;;;;;;;;;;;;;;26.37;28.89;100001.13;5051403;28;20032;-22
2021/09/12 09:10:50;;;;;;;25.73;8.80;;;;;;;26.75;28.92;99997.66;5068375;28;20003;-21
2021/09/12 09:13:31;;;;;;;282.90;115.93;;;;;;;26.99;30.27;99982.53;5068744;28;20040;-21
2021/09/12 09:16:02;;;;;;;33.45;13.55;;;;;;;26.77;28.50;99965.31;5068301;28;20507;-21
2021/09/12 09:18:41;;;;;;;26.42;11.38;;;;;;;26.92;28.24;99966.66;5049664;28;20558;-22
2021/09/12 09:21:24;;;;;;;17.15;8.20;;;;;;;26.79;26.79;99984.91;5068128;28;20419;-21
2021/09/12 09:24:21;;;;;;;46.00;18.63;;;;;;;26.99;27.77;99977.91;5068148;28;20036;-22
2021/09/12 09:26:57;;;;;;;33.35;12.63;;;;;;;27.01;30.34;99953.75;5067895;28;20064;-21
2021/09/12 09:29:27;;;;;;;136.23;42.47;;;;;;;27.10;27.33;99961.88;5050127;28;20033;-22
2021/09/12 09:32:13;;;;;;;128.95;50.00;;;;;;;27.45;26.91;99972.59;5067851;28;20809;-21
2021/09/12 09:34:42;;;;;;;18.88;7.35;;;;;;;27.57;26.12;99972.66;5068071;28;20048;-21
2021/09/12 09:37:14;;;;;;;9.23;5.40;;;;;;;27.51;25.98;99963.03;5067488;28;20043;-22
2021/09/12 09:39:41;;;;;;;13.07;6.53;;;;;;;27.42;26.28;99956.81;5066967;28;20033;-22
2021/09/12 09:42:08;;;;;;;;;;;;;;;27.70;26.53;99959.00;5067759;28;20032;-22
2021/09/12 09:44:34;;;;;;;102.43;39.65;;;;;;;27.94;26.45;99961.88;5050111;28;19912;-22
2021/09/12 09:47:09;;;;;;;24.50;11.52;;;;;;;27.83;27.56;99950.50;5067811;28;20114;-22
2021/09/12 09:49:37;;;;;;;16.42;8.70;;;;;;;28.02;25.73;99950.00;5067472;28;20028;-22
2021/09/12 09:52:03;;;;;;;36.92;16.95;;;;;;;28.13;27.14;99944.88;5067546;28;20059;-21
2021/09/12 09:54:30;;;;;;;11.55;6.25;;;;;;;28.24;25.86;99945.25;5067247;28;20057;-22
2021/09/12 09:56:56;;;;;;;11.85;6.22;;;;;;;28.27;24.70;99941.81;5067318;28;20021;-22
2021/09/12 09:59:25;;;;;;;21.17;11.43;;;;;;;28.44;24.63;99947.09;5067229;28;20048;-21
2021/09/12 10:01:51;;;;;;;16.45;8.50;;;;;;;28.43;24.56;99940.00;5049474;28;20024;-22
2021/09/12 10:04:26;;;;;;;14.45;7.40;;;;;;;28.54;23.86;99921.16;5067386;28;20041;-22
2021/09/12 10:06:52;;;;;;;19.02;8.80;;;;;;;28.69;24.60;99933.41;5067342;28;20020;-22
2021/09/12 10:09:18;;;;;;;27.58;14.07;;;;;;;28.83;24.65;99930.28;5067224;28;20389;-23
2021/09/12 10:11:56;;;;;;;26.17;12.35;;;;;;;28.93;23.96;99931.78;5067272;28;20024;-22
2021/09/12 10:14:30;;;;;;;10.70;6.47;;;;;;;28.77;23.93;99931.66;5067050;28;20063;-22
2021/09/12 10:16:55;;;;;;;13.88;6.68;;;;;;;28.88;23.72;99937.50;5050374;28;20103;-21
2021/09/12 10:19:35;;;;;;;12.75;7.18;;;;;;;29.24;23.06;99931.97;5049284;28;20115;-22
2021/09/12 10:22:01;;;;;;;71.18;39.58;;;;;;;29.22;25.29;99914.25;5049370;28;20021;-21
2021/09/12 10:24:27;;;;;;;91.80;49.80;;;;;;;29.32;25.17;99918.44;5067043;28;20063;-21
2021/09/12 10:26:52;;;;;;;53.85;27.13;;;;;;;29.86;24.73;99920.72;5049166;28;20056;-21
2021/09/12 10:29:46;;;;;;;10.98;6.15;;;;;;;30.35;23.71;99906.66;5067464;28;20040;-21
2021/09/12 10:32:32;;;;;;;11.40;6.70;;;;;;;29.95;23.63;99906.81;5066754;28;20017;-21
2021/09/12 10:35:26;;;;;;;79.50;50.88;;;;;;;30.29;23.88;99894.31;5066897;28;20063;-21
2021/09/12 10:38:02;;;;;;;23.98;15.80;;;;;;;31.02;21.47;99912.16;5066899;28;20028;-22
2021/09/12 10:40:48;;;;;;;12.60;6.20;;;;;;;30.67;21.28;99908.56;5066828;28;20036;-22
2021/09/12 10:43:25;;;;;;;12.98;7.20;;;;;;;30.28;23.08;99892.72;5052948;28;20044;-21
2021/09/12 10:46:09;;;;;;;14.13;7.40;;;;;;;30.02;22.74;99912.50;5066468;28;20037;-21
2021/09/12 10:48:44;;;;;;;12.10;6.88;;;;;;;30.34;21.73;99896.84;5066791;28;20025;-21
2021/09/12 10:51:10;;;;;;;16.95;10.23;;;;;;;30.60;23.16;99914.72;5066754;28;20103;-21
2021/09/12 10:53:46;;;;;;;37.40;27.38;;;;;;;30.70;22.37;99903.16;5066862;28;20201;-21
2021/09/12 10:56:17;;;;;;;9.63;5.72;;;;;;;30.46;21.87;99873.09;5046753;28;20033;-22
2021/09/12 10:58:49;;;;;;;16.02;8.82;;;;;;;29.90;22.89;99882.34;5045699;28;20025;-22
2021/09/12 11:01:29;;;;;;;15.65;9.55;;;;;;;30.23;22.74;99873.72;5046754;28;20060;-21
2021/09/12 11:03:58;;;;;;;14.57;11.88;;;;;;;29.93;24.44;99893.41;5046223;28;20090;-22
2021/09/12 11:06:47;;;;;;;11.73;6.70;;;;;;;29.27;24.42;99882.97;5046976;28;20028;-21
2021/09/12 11:09:22;;;;;;;9.68;6.45;;;;;;;29.60;23.90;99858.78;5046721;28;20043;-21
2021/09/12 11:11:49;;;;;;;17.02;11.68;;;;;;;29.58;24.28;99863.03;5046439;28;20032;-22
2021/09/12 11:14:18;;;;;;;23.08;14.07;;;;;;;30.35;24.25;99870.13;5029431;28;20037;-21
2021/09/12 11:16:44;;;;;;;16.83;9.85;;;;;;;30.62;23.33;99871.13;5046408;28;20488;-22
2021/09/12 11:19:09;;;;;;;10.45;6.68;;;;;;;30.68;23.08;99866.94;5046725;28;20036;-22
2021/09/12 11:21:46;;;;;;;9.45;5.65;;;;;;;30.32;23.93;99870.81;5046441;28;20041;-22